createdAt,value
2023-07-11T00:03:33.362Z,77.74
2023-07-11T00:08:38.083Z,77.67
2023-07-11T00:13:41.051Z,78.49
2023-07-11T00:18:43.153Z,79.04
2023-07-11T00:23:44.889Z,78.70
2023-07-11T00:28:46.558Z,78.86
2023-07-11T00:33:48.289Z,78.70
2023-07-11T00:38:50.009Z,78.68
2023-07-11T00:43:52.545Z,78.81
2023-07-11T00:48:56.435Z,78.52
2023-07-11T00:53:58.668Z,78.06
2023-07-11T00:59:00.540Z,78.20
2023-07-11T01:04:03.090Z,78.44
2023-07-11T01:09:05.933Z,78.67
2023-07-11T01:14:07.773Z,78.97
2023-07-11T01:19:09.553Z,79.28
2023-07-11T01:24:12.442Z,80.14
2023-07-11T01:29:14.169Z,80.08
2023-07-11T01:34:15.853Z,80.29
2023-07-11T01:39:17.902Z,80.14
2023-07-11T01:44:20.530Z,79.65
2023-07-11T01:49:22.208Z,80.04
2023-07-11T01:54:23.993Z,80.44
2023-07-11T01:59:25.768Z,81.25
2023-07-11T02:04:27.634Z,82.05
2023-07-11T02:09:30.243Z,82.12
2023-07-11T02:14:32.000Z,82.62
2023-07-11T02:19:33.736Z,82.91
2023-07-11T02:24:36.718Z,83.72
2023-07-11T02:29:38.442Z,83.75
2023-07-11T02:34:40.139Z,83.78
2023-07-11T02:39:41.809Z,84.20
2023-07-11T02:44:43.688Z,84.39
2023-07-11T02:49:45.446Z,83.35
2023-07-11T02:54:47.168Z,83.59
2023-07-11T02:59:48.845Z,83.79
2023-07-11T03:04:52.827Z,83.72
2023-07-11T03:09:54.676Z,82.96
2023-07-11T03:14:56.372Z,82.80
2023-07-11T03:19:58.032Z,83.25
2023-07-11T03:24:59.770Z,82.64
2023-07-11T03:30:01.558Z,81.98
2023-07-11T03:35:06.877Z,81.68
2023-07-11T03:40:09.386Z,81.78
2023-07-11T03:45:11.281Z,80.71
2023-07-11T03:50:13.397Z,80.56
2023-07-11T03:55:15.281Z,80.53
2023-07-11T04:00:17.183Z,80.03
2023-07-11T04:05:19.088Z,80.06
2023-07-11T04:10:21.011Z,80.46
2023-07-11T04:15:22.735Z,80.50
2023-07-11T04:20:24.672Z,79.93
2023-07-11T04:25:26.322Z,78.89
2023-07-11T04:30:28.108Z,77.63
2023-07-11T04:35:31.083Z,76.51
2023-07-11T04:40:32.853Z,76.38
2023-07-11T04:45:35.738Z,76.87
2023-07-11T04:50:37.463Z,76.06
2023-07-11T04:55:39.271Z,75.37
2023-07-11T05:00:41.206Z,73.09
2023-07-11T05:05:42.855Z,71.98
2023-07-11T05:11:02.603Z,70.68
2023-07-11T05:16:11.514Z,69.08
2023-07-11T05:21:16.409Z,67.43
2023-07-11T05:26:18.845Z,64.73
2023-07-11T05:31:20.626Z,62.23
2023-07-11T05:36:26.830Z,58.52
2023-07-11T05:41:29.877Z,55.44
2023-07-11T05:46:32.071Z,53.84
2023-07-11T05:51:34.617Z,53.05
2023-07-11T05:56:36.357Z,53.30
2023-07-11T06:01:38.212Z,53.21
2023-07-11T06:06:43.608Z,54.48
2023-07-11T06:11:46.807Z,52.73
2023-07-11T06:16:51.134Z,49.35
2023-07-11T06:21:53.565Z,51.77
2023-07-11T06:26:55.265Z,47.42
2023-07-11T06:31:57.285Z,46.34
2023-07-11T06:36:59.061Z,50.16
2023-07-11T06:42:00.802Z,48.09
2023-07-11T06:47:02.899Z,43.39
2023-07-11T06:52:04.942Z,45.25
2023-07-11T06:57:06.854Z,46.26
2023-07-11T07:02:10.781Z,45.70
2023-07-11T07:07:12.406Z,45.05
2023-07-11T07:12:16.799Z,44.28
2023-07-11T07:17:18.722Z,43.49
2023-07-11T07:22:20.539Z,45.97
2023-07-11T07:27:28.536Z,45.73
2023-07-11T07:32:31.063Z,42.96
2023-07-11T07:37:32.885Z,46.62
2023-07-11T07:42:34.573Z,44.90
2023-07-11T07:47:36.537Z,46.82
2023-07-11T07:52:38.288Z,44.83
2023-07-11T07:57:40.463Z,45.96
2023-07-11T08:02:43.872Z,44.89
2023-07-11T08:07:45.949Z,46.03
2023-07-11T08:12:47.942Z,43.68
2023-07-11T08:17:49.634Z,41.82
2023-07-11T08:22:51.388Z,42.18
2023-07-11T08:27:53.035Z,42.89
2023-07-11T08:32:54.740Z,41.93
2023-07-11T08:37:56.621Z,43.43
2023-07-11T08:43:02.323Z,43.14
2023-07-11T08:48:28.799Z,43.38
2023-07-11T08:53:39.261Z,44.46
2023-07-11T08:58:41.730Z,43.59
2023-07-11T09:03:46.000Z,41.72
2023-07-11T09:08:48.642Z,41.79
2023-07-11T09:13:56.241Z,41.53
2023-07-11T09:19:36.741Z,41.93
2023-07-11T09:24:41.753Z,41.66
2023-07-11T09:29:46.621Z,42.37
2023-07-11T09:34:51.544Z,40.84
2023-07-11T09:39:59.208Z,40.84
2023-07-11T09:45:02.235Z,40.41
2023-07-11T09:50:38.192Z,39.29
2023-07-11T09:55:41.672Z,39.08
2023-07-11T10:00:53.193Z,40.12
2023-07-11T10:05:55.712Z,39.47
2023-07-11T10:11:03.746Z,39.67
2023-07-11T10:16:06.243Z,39.58
2023-07-11T10:21:21.939Z,40.04
2023-07-11T10:26:28.402Z,39.22
2023-07-11T10:31:39.685Z,39.66
2023-07-11T10:36:47.427Z,39.78
2023-07-11T10:42:08.228Z,38.75
2023-07-11T10:47:10.500Z,38.92
2023-07-11T10:52:26.612Z,38.94
2023-07-11T10:57:44.796Z,39.36
2023-07-11T11:03:07.862Z,39.40
2023-07-11T11:08:37.777Z,40.08
2023-07-11T11:13:46.485Z,40.90
2023-07-11T11:19:03.840Z,39.05
2023-07-11T11:24:19.370Z,38.95
2023-07-11T11:29:39.448Z,40.37
2023-07-11T11:35:15.475Z,38.70
2023-07-11T11:40:22.787Z,40.53
2023-07-11T11:55:35.497Z,39.88
2023-07-11T12:00:46.047Z,39.45
2023-07-11T12:05:53.443Z,39.85
2023-07-11T12:11:07.832Z,39.57
2023-07-11T12:16:35.904Z,40.43
2023-07-11T12:21:45.248Z,39.61
2023-07-11T12:26:47.015Z,40.01
2023-07-11T12:32:27.030Z,39.01
2023-07-11T12:37:29.156Z,39.15
2023-07-11T12:42:43.166Z,39.26
2023-07-11T12:47:49.073Z,39.36
2023-07-11T12:52:59.098Z,37.90
2023-07-11T12:58:00.770Z,38.59
2023-07-11T13:03:25.722Z,38.29
2023-07-11T13:08:32.054Z,38.87
2023-07-11T13:13:35.109Z,38.84
2023-07-11T13:18:40.224Z,37.66
2023-07-11T13:23:46.822Z,38.73
2023-07-11T13:29:02.374Z,38.41
2023-07-11T13:34:13.294Z,39.01
2023-07-11T13:39:17.305Z,38.45
2023-07-11T13:44:22.052Z,38.78
2023-07-11T13:49:27.411Z,38.84
2023-07-11T13:54:35.874Z,39.08
2023-07-11T13:59:38.847Z,38.98
2023-07-11T14:04:42.890Z,39.08
2023-07-11T14:09:44.671Z,38.84
2023-07-11T14:14:47.258Z,38.50
2023-07-11T14:19:49.006Z,38.89
2023-07-11T14:24:50.944Z,38.01
2023-07-11T14:29:53.014Z,38.69
2023-07-11T14:34:54.740Z,38.05
2023-07-11T14:39:57.660Z,37.90
2023-07-11T14:44:59.562Z,37.56
2023-07-11T14:50:05.047Z,37.40
2023-07-11T15:00:21.697Z,37.62
2023-07-11T15:10:29.026Z,37.19
2023-07-11T15:15:32.700Z,37.80
2023-07-11T15:20:34.530Z,36.83
2023-07-11T15:25:37.835Z,36.83
2023-07-11T15:30:42.791Z,35.48
2023-07-11T15:35:44.456Z,37.16
2023-07-11T15:40:46.120Z,36.14
2023-07-11T15:45:47.818Z,36.25
2023-07-11T15:50:50.920Z,35.56
2023-07-11T15:55:52.649Z,35.71
2023-07-11T16:00:54.962Z,36.37
2023-07-11T16:05:57.746Z,35.67
2023-07-11T16:11:01.656Z,35.20
2023-07-11T16:16:03.672Z,36.54
2023-07-11T16:21:05.580Z,36.68
2023-07-11T16:26:23.816Z,36.18
2023-07-11T16:31:27.200Z,35.62
2023-07-11T16:36:29.227Z,35.71
2023-07-11T16:41:30.925Z,36.38
2023-07-11T16:46:32.628Z,36.43
2023-07-11T16:51:34.364Z,36.46
2023-07-11T16:56:35.988Z,36.87
2023-07-11T17:01:37.676Z,37.52
2023-07-11T17:06:40.475Z,37.27
2023-07-11T17:11:42.137Z,36.75
2023-07-11T17:16:46.386Z,37.23
2023-07-11T17:21:48.160Z,37.43
2023-07-11T17:26:52.121Z,37.81
2023-07-11T17:31:53.803Z,38.72
2023-07-11T17:36:55.729Z,38.04
2023-07-11T17:42:05.435Z,38.55
2023-07-11T17:47:36.762Z,38.32
2023-07-11T17:52:40.378Z,39.28
2023-07-11T17:57:42.145Z,39.26
2023-07-11T18:02:58.363Z,39.48
2023-07-11T18:08:03.578Z,39.56
2023-07-11T18:13:11.336Z,39.65
2023-07-11T18:18:28.028Z,40.63
2023-07-11T18:23:29.960Z,40.46
2023-07-11T18:28:31.606Z,40.69
2023-07-11T18:33:33.342Z,40.87
2023-07-11T18:38:36.025Z,41.34
2023-07-11T18:43:37.734Z,41.83
2023-07-11T18:48:41.168Z,42.67
2023-07-11T18:53:43.713Z,42.76
2023-07-11T18:58:45.432Z,43.10
2023-07-11T19:03:47.203Z,43.40
2023-07-11T19:08:49.364Z,43.66
2023-07-11T19:13:51.221Z,44.04
2023-07-11T19:18:52.970Z,44.26
2023-07-11T19:23:54.752Z,44.66
2023-07-11T19:28:57.064Z,45.46
2023-07-11T19:33:58.716Z,45.80
2023-07-11T19:39:00.488Z,45.96
2023-07-11T19:44:02.136Z,46.26
2023-07-11T19:49:03.806Z,46.64
2023-07-11T19:54:05.501Z,46.60
2023-07-11T19:59:09.029Z,46.90
2023-07-11T20:04:10.835Z,47.39
2023-07-11T20:09:12.577Z,47.77
2023-07-11T20:14:14.720Z,47.94
2023-07-11T20:19:16.380Z,47.60
2023-07-11T20:24:18.096Z,47.55
2023-07-11T20:29:20.067Z,48.26
2023-07-11T20:34:21.771Z,48.35
2023-07-11T20:39:23.540Z,48.38
2023-07-11T20:44:25.235Z,48.31
2023-07-11T20:49:26.982Z,48.40
2023-07-11T20:54:28.668Z,48.96
2023-07-11T20:59:30.344Z,49.64
2023-07-11T21:04:32.081Z,49.60
2023-07-11T21:09:33.762Z,49.77
2023-07-11T21:14:35.400Z,50.30
2023-07-11T21:19:37.169Z,50.55
2023-07-11T21:24:38.879Z,51.11
2023-07-11T21:29:41.857Z,51.30
2023-07-11T21:34:44.991Z,51.72
2023-07-11T21:39:46.704Z,51.85
2023-07-11T21:44:48.390Z,52.69
2023-07-11T21:49:50.096Z,52.91
2023-07-11T21:54:53.328Z,53.33
2023-07-11T21:59:54.998Z,53.14
2023-07-11T22:04:57.283Z,52.92
2023-07-11T22:09:58.977Z,53.35
2023-07-11T22:15:00.621Z,53.09
2023-07-11T22:20:02.359Z,52.23
2023-07-11T22:25:05.787Z,52.13
2023-07-11T22:30:16.679Z,51.85
2023-07-11T22:35:19.116Z,51.64
2023-07-11T22:40:24.040Z,51.77
2023-07-11T22:45:26.155Z,51.12
2023-07-11T22:50:40.534Z,51.71
2023-07-11T22:55:49.571Z,51.67
2023-07-11T23:00:51.716Z,51.14
2023-07-11T23:05:57.374Z,50.69
2023-07-11T23:10:59.732Z,50.81
2023-07-11T23:16:01.425Z,50.44
2023-07-11T23:21:03.171Z,50.51
2023-07-11T23:26:13.078Z,50.25
2023-07-11T23:31:14.829Z,49.80
2023-07-11T23:36:25.484Z,50.04
2023-07-11T23:41:27.157Z,49.67
2023-07-11T23:46:30.694Z,49.56
2023-07-11T23:51:32.394Z,49.54
2023-07-11T23:56:34.104Z,49.70
